Home > Products > Valid Products > TAF

000
FTUS46 KPDT 311121
TAFALW
TAF
KALW 311121Z 3112/0112 VRB05KT P6SM SCT250
     FM312000 33007KT P6SM SCT250
     FM010400 10007KT P6SM SCT250=



000
FTUS46 KPDT 311121
TAFPSC
TAF
KPSC 311121Z 3112/0112 VRB03KT P6SM SCT250
     FM311600 01007KT P6SM SCT250
     FM010300 VRB03KT P6SM SCT250=



000
FTUS46 KPDT 311121
TAFPDT
TAF
KPDT 311121Z 3112/0112 13006KT P6SM SCT250
     FM311800 01008KT P6SM SCT250
     FM010700 12007KT P6SM SCT250=



000
FTUS46 KPDT 311121
TAFDLS
TAF
KDLS 311121Z 3112/0112 VRB05KT P6SM SCT250=



000
FTUS46 KPDT 311121
TAFRDM
TAF
KRDM 311121Z 3112/0112 VRB05KT P6SM SCT250
     FM311900 36008KT P6SM SCT250
     FM010800 VRB04KT P6SM SCT250=



000
FTUS46 KPDT 311121
TAFYKM
TAF
KYKM 311121Z 3112/0112 28006KT P6SM SCT250
     FM311800 VRB04KT P6SM SCT250
     FM010500 26007KT P6SM SCT250=



000
FTUS46 KPDT 301730
TAFPDT
TAF
KPDT 301730Z 3018/3118 27006KT P6SM SKC
     FM302000 36008KT P6SM FEW080 SCT150
     FM310600 12006KT P6SM SKC
     FM311700 02004KT P6SM SKC=



000
FTUS46 KPDT 301730
TAFDLS
TAF
KDLS 301730Z 3018/3118 33008KT P6SM SKC
     FM310600 12003KT P6SM SKC
     FM311500 34002KT P6SM SKC=



000
FTUS46 KPDT 301730
TAFYKM
TAF
KYKM 301730Z 3018/3118 14005KT P6SM FEW250
     FM310500 27008KT P6SM SKC
     FM311600 15003KT P6SM SKC=



000
FTUS46 KPDT 301730
TAFRDM
TAF
KRDM 301730Z 3018/3118 35009KT P6SM SKC
     FM310800 16004KT P6SM SKC=



000
FTUS46 KPDT 301730
TAFALW
TAF
KALW 301730Z 3018/3118 22007KT P6SM SKC
     FM302100 30008KT P6SM FEW080 SCT150
     FM310500 12007KT P6SM SKC
     FM311700 23004KT P6SM SKC=



000
FTUS46 KPDT 301730
TAFPSC
TAF
KPSC 301730Z 3018/3118 VRB04KT P6SM SKC
     FM301900 35006KT P6SM SKC
     FM310400 VRB04KT P6SM SKC
     FM311200 03003KT P6SM SKC=



000
FTUS46 KPDT 301120
TAFPSC
TAF
KPSC 301120Z 3012/3112 VRB04KT P6SM FEW090 SCT250
     FM301900 35006KT P6SM SCT250
     FM310400 VRB04KT P6SM FEW250=



000
FTUS46 KPDT 301120
TAFDLS
TAF
KDLS 301120Z 3012/3112 33008KT P6SM SCT250
     FM310600 12003KT P6SM BKN250=



000
FTUS46 KPDT 301120
TAFRDM
TAF
KRDM 301120Z 3012/3112 VRB03KT P6SM SCT250
     FM301900 35009KT P6SM SCT250
     FM310800 16004KT P6SM FEW250=



000
FTUS46 KPDT 301120
TAFYKM
TAF
KYKM 301120Z 3012/3112 28007KT P6SM SCT250
     FM301800 14005KT P6SM FEW180 SCT250
     FM310500 27008KT P6SM SCT150 BKN250=



000
FTUS46 KPDT 301120
TAFALW
TAF
KALW 301120Z 3012/3112 22007KT P6SM SCT080 BKN250
     FM302100 30008KT P6SM SCT250
     FM310500 12007KT P6SM FEW250=



000
FTUS46 KPDT 301120
TAFPDT
TAF
KPDT 301120Z 3012/3112 23006KT P6SM BKN070
     FM301700 27006KT P6SM BKN250
     FM302000 36008KT P6SM SCT250
     FM310600 12006KT P6SM FEW200=



000
FTUS46 KPDT 290520
TAFPDT
TAF
KPDT 290520Z 2906/3006 21006KT P6SM SCT080
     FM291700 26015G25KT P6SM SCT080=



    US Dept of Commerce
    National Oceanic and Atmospheric Administration
    National Weather Service
    1325 East West Highway
    Silver Spring, MD 20910
    Page Author: NWS Internet Services Team
Disclaimer
Information Quality
Credits
Glossary
Privacy Policy
Freedom of Information Act (FOIA)
About Us
Career Opportunities